x

South Santa Rosa Is. Ca (46069) Wave Buoy

4:50am - Tue 31st May 2016 All times are PDT. -7 hours from GMT.

  • Sig Wave height 6.2ft
  • Peak Period 16s
  • Wind
    16mph, 20mph gusts
  • Sea Temp 58°f
  • Air Temp 56°f
  • Sea Pressure 1011.3mb
  • South Santa Rosa Is. Ca
  • South Santa Rosa Is. Ca

More Historic Weather Station data

Upgrade to MSW Pro to gain access to the past 30 days of data for over 8000 Wavebouys and Weather Stations around the globe.

Join Pro

Comparision Forecast

View Surf forecast
   
Tue 05/31 4:50am 6ft 16s  -  16 20 mph 1011.3mb 58f 56f
3:50am 6ft 16s 6s 18 22 mph 1011.4mb 58f 56f
2:50am 6ft 16s 6s 20 25 mph 1011.5mb 58f 56f
1:50am 6.5ft 17s 6s 22 27 mph 1011.7mb 58f 56f
12:50am 7ft 16s 7s 20 25 mph 1012.2mb 58f 56f
Mon 05/30 11:50pm 6ft 17s 6s 22 25 mph 1012.7mb 58f 56f
10:50pm 7ft 17s 7s 22 27 mph 1013.3mb 58f 56f
9:50pm 6ft 17s 6s 20 25 mph 1013.6mb 58f 56f
8:50pm 5.5ft 17s 6s 20 25 mph 1013.6mb 59f 56f
7:50pm 6ft 17s 7s 18 22 mph 1013.5mb 59f 56f
6:50pm 6ft 17s 7s 18 20 mph 1013.4mb 59f 57f
5:50pm 5ft 17s 7s 18 22 mph 1013.9mb 59f 57f
4:50pm 5.5ft 17s 8s 16 18 mph 1014.4mb 59f 57f
3:50pm 5ft 17s 7s 13 16 mph 1015.2mb 59f 57f
2:50pm 4.5ft 17s 7s 13 16 mph 1015.8mb 59f 56f
1:50pm 4.5ft 9s 7s 13 16 mph 1016.2mb 59f 56f
12:50pm 4.5ft 17s 7s 11 13 mph 1016.7mb 59f 56f
11:50am 4.5ft 17s 7s 11 13 mph 1016.8mb 59f 56f
10:50am 5ft 17s 7s 7 9 mph 1016.8mb 59f 56f
9:50am 5ft 17s 7s 7 9 mph 1016.9mb 59f 56f
8:50am 5ft 9s 7s 11 16 mph 1016.8mb 59f 56f
7:50am 5.5ft 9s 7s 11 13 mph 1016.6mb 58f 55f
6:50am 5ft 10s 7s 11 16 mph 1016.3mb 58f 56f
5:50am 5.5ft 9s 7s 9 13 mph 1015.8mb 58f 56f
4:50am 5ft 9s 7s 11 16 mph 1015.6mb 58f 55f
3:50am 5ft 9s 7s 13 18 mph 1015.5mb 58f 55f
2:50am 5ft 9s 7s 13 18 mph 1015.8mb 59f 56f
1:50am 5ft 9s 7s 11 16 mph 1016.1mb 59f 56f
12:50am 5.5ft 10s 8s 9 16 mph 1016.5mb 59f 56f
Sun 05/29 11:50pm 5ft 8s 8s 11 13 mph 1016.8mb 58f 57f
10:50pm 5ft 9s 8s 11 13 mph 1016.7mb 59f 57f
9:50pm 5.5ft 15s 8s 9 11 mph 1016.7mb 58f 57f
8:50pm 6ft 9s 8s 11 13 mph 1016.1mb 58f 57f
7:50pm 6.5ft 8s 8s 9 11 mph 1015.8mb 58f 57f
6:50pm 5.5ft 9s 8s 9 11 mph 1015.6mb 59f 58f
5:50pm 5ft 8s 8s 9 11 mph 1015.5mb 60f 58f
3:50pm 4.5ft 9s 8s 7 9 mph 1016.2mb 60f 58f
2:50pm 4.5ft 9s 8s 4 7 mph 1016.6mb 60f 58f
1:50pm 5ft 9s 8s 7
mph
1017mb 59f 58f
12:50pm 5ft 9s 8s 4 7 mph 1017.3mb 60f 58f
11:50am 5.5ft 15s 8s 4 7 mph 1017.4mb 59f 58f
10:50am 5ft 10s 8s 4
mph
1017.4mb 58f 58f
9:50am 5ft 9s 8s 2 4 mph 1017.2mb 58f 57f
8:50am 6ft 10s 9s 4
mph
1016.8mb 57f 57f
7:50am 6ft 10s 9s 4 7 mph 1016.4mb 57f 57f
6:50am 5.5ft 10s 9s 2 4 mph 1015.8mb 57f 56f
5:50am 5ft 10s 8s 7 9 mph 1015.1mb 58f 56f
4:50am 5ft 10s 8s 2 4 mph 1014.6mb 58f 56f
3:50am 5.5ft 10s 8s 2 7 mph 1014.6mb 58f 56f
2:50am 6ft 10s 8s 2 4 mph 1014.5mb 58f 56f
1:50am 6ft 10s 8s 4 7 mph 1014.4mb 58f 56f
12:50am 6ft 10s 8s 4 9 mph 1014.6mb 58f 57f
Sat 05/28 11:50pm 6.5ft 10s 8s 2 4 mph 1014.7mb 58f 57f
10:50pm 6ft 10s 8s  -  2 mph 1014.6mb 58f 57f
9:50pm 6.5ft 11s 8s  -  2 mph 1014mb 58f 57f
8:50pm 7.5ft 11s 8s 2 4 mph 1013.4mb 58f 57f
7:50pm 8ft 10s 8s 4
mph
1012.9mb 59f 58f
6:50pm 8ft 10s 8s 4 7 mph 1012.3mb 59f 58f
5:50pm 7.5ft 10s 8s 4 7 mph 1012.1mb 60f 58f
4:50pm 7.5ft 10s 9s 4 9 mph 1012mb 59f 58f
3:50pm 6.5ft 10s 8s 2 7 mph 1012.3mb 59f 58f
2:50pm 6ft 11s 8s 7 9 mph 1012.7mb 59f 57f
1:50pm 6ft 10s 8s 7 9 mph 1012.8mb 59f 57f
12:50pm 6ft 10s 8s 7 9 mph 1012.9mb 58f 57f
11:50am 5.5ft 10s 8s 4 9 mph 1012.9mb 58f 56f
10:50am 5.5ft 10s 8s 4 9 mph 1012.7mb 58f 56f
9:50am 6ft 11s 8s 4 7 mph 1012.3mb 58f 56f
8:50am 6.5ft 10s 8s 4 7 mph 1012mb 58f 55f
7:50am 6ft 10s 8s 2 4 mph 1011.6mb 58f 55f
6:50am 7ft 11s 8s 2 4 mph 1011.1mb 58f 55f
5:50am 6.5ft 10s 8s 4 7 mph 1010.6mb 58f 55f
4:50am 7ft 10s 8s 4 7 mph 1010.3mb 58f 55f
3:50am 6ft 11s 8s 7 9 mph 1010.1mb 58f 55f
2:50am 6ft 11s 7s 7 11 mph 1010.6mb 58f 55f
12:50am 7ft 10s 7s 11 13 mph 1011.2mb 58f 55f
Fri 05/27 11:50pm 6.5ft 10s 7s 13 16 mph 1011.5mb 58f 55f
10:50pm 6ft 11s 6s 18 20 mph 1011.6mb 58f 55f
9:50pm 6.5ft 10s 6s 20 25 mph 1011.3mb 57f 55f
8:50pm 7.5ft 11s 7s 18 22 mph 1011.7mb 57f 56f
7:50pm 6.5ft 10s 6s 20 22 mph 1011.9mb 57f 56f
6:50pm 8ft 11s 7s 22 25 mph 1011.5mb 57f 56f
5:50pm 8ft 10s 7s 20 25 mph 1011.8mb 57f 56f
4:50pm 7ft 10s 6s 20 22 mph 1011.8mb 57f 56f
3:50pm 7ft 9s 7s 20 25 mph 1012.3mb 57f 56f
2:50pm 7ft 10s 6s 18 22 mph 1013mb 57f 56f
1:50pm 7ft 9s 6s 18 22 mph 1013.4mb 57f 55f